Terminal Aerodrome Forecast
Issued by NWS Tuscon, AZ

Home | Current Version | Previous Version | Text Only | Print | Product List | Glossary On
Versions: 1 2 3 4 5 6 7 8 9 10 11 12 13
000
FTUS45 KTWC 040538
TAFTUS
TAF
KTUS 040538Z 0406/0506 29008KT P6SM SCT120
     FM040900 14007KT P6SM SCT100
     FM041500 18010KT P6SM BKN100
     FM041900 23012G20KT P6SM SCT050 BKN080
     FM050300 23007KT P6SM SCT080=

USA.gov is the U.S. government's official web portal to all federal, state and local government web resources and services.